Terminal Aerodrome Forecast
Issued by NWS Charleston, WV

Current Version | Previous Version | Graphics & Text | Print | Product List | Glossary On
Versions: 1 2 3 4 5 6 7 8 9 10 11 12 13 14 15 16 17 18 19 20 21 22
000
FTUS41 KRLX 280248 AAA
TAFHTS
TAF AMD
KHTS 280248Z 2803/2824 26008KT P6SM OVC030
      TEMPO 2803/2805 -SHRA
     FM281200 28008G17KT P6SM BKN035
     FM281700 28010G17KT P6SM SCT040
     FM282200 29008KT P6SM SKC=

USA.gov is the U.S. government's official web portal to all federal, state and local government web resources and services.